sensor_id;sensor_type;location;lat;lon;timestamp;P1;durP1;ratioP1;P2;durP2;ratioP2
46084;SDS011;31823;47.032;8.310;2023-03-05T00:01:38;70.07;;;35.95;;
46084;SDS011;31823;47.032;8.310;2023-03-05T00:04:04;72.43;;;35.33;;
46084;SDS011;31823;47.032;8.310;2023-03-05T00:06:31;71.75;;;36.70;;
46084;SDS011;31823;47.032;8.310;2023-03-05T00:08:58;71.78;;;36.05;;
46084;SDS011;31823;47.032;8.310;2023-03-05T00:11:25;76.68;;;37.45;;
46084;SDS011;31823;47.032;8.310;2023-03-05T00:13:55;76.18;;;38.25;;
46084;SDS011;31823;47.032;8.310;2023-03-05T00:16:22;77.82;;;37.58;;
46084;SDS011;31823;47.032;8.310;2023-03-05T00:18:50;72.65;;;36.38;;
46084;SDS011;31823;47.032;8.310;2023-03-05T00:23:56;79.25;;;37.78;;
46084;SDS011;31823;47.032;8.310;2023-03-05T00:26:23;77.45;;;39.58;;
46084;SDS011;31823;47.032;8.310;2023-03-05T00:28:50;79.22;;;39.05;;
46084;SDS011;31823;47.032;8.310;2023-03-05T00:31:16;82.97;;;36.90;;
46084;SDS011;31823;47.032;8.310;2023-03-05T00:33:44;85.82;;;37.92;;
46084;SDS011;31823;47.032;8.310;2023-03-05T00:36:10;77.22;;;37.70;;
46084;SDS011;31823;47.032;8.310;2023-03-05T00:38:35;78.20;;;38.42;;
46084;SDS011;31823;47.032;8.310;2023-03-05T00:41:01;72.82;;;38.13;;
46084;SDS011;31823;47.032;8.310;2023-03-05T00:43:27;79.30;;;38.60;;
46084;SDS011;31823;47.032;8.310;2023-03-05T00:45:53;73.40;;;37.42;;
46084;SDS011;31823;47.032;8.310;2023-03-05T00:48:19;77.85;;;38.30;;
46084;SDS011;31823;47.032;8.310;2023-03-05T00:50:46;82.45;;;39.58;;
46084;SDS011;31823;47.032;8.310;2023-03-05T00:53:12;80.10;;;38.38;;
46084;SDS011;31823;47.032;8.310;2023-03-05T00:55:37;74.07;;;37.38;;
46084;SDS011;31823;47.032;8.310;2023-03-05T00:58:03;79.40;;;38.80;;
46084;SDS011;31823;47.032;8.310;2023-03-05T01:00:28;81.05;;;39.03;;
46084;SDS011;31823;47.032;8.310;2023-03-05T01:02:54;78.55;;;40.03;;
46084;SDS011;31823;47.032;8.310;2023-03-05T01:05:20;83.47;;;39.67;;
46084;SDS011;31823;47.032;8.310;2023-03-05T01:07:45;82.15;;;39.80;;
46084;SDS011;31823;47.032;8.310;2023-03-05T01:10:11;79.45;;;39.72;;
46084;SDS011;31823;47.032;8.310;2023-03-05T01:12:37;81.30;;;39.55;;
46084;SDS011;31823;47.032;8.310;2023-03-05T01:15:03;80.55;;;39.95;;
46084;SDS011;31823;47.032;8.310;2023-03-05T01:17:30;79.68;;;38.97;;
46084;SDS011;31823;47.032;8.310;2023-03-05T01:19:56;92.63;;;43.10;;
46084;SDS011;31823;47.032;8.310;2023-03-05T01:22:21;82.18;;;40.63;;
46084;SDS011;31823;47.032;8.310;2023-03-05T01:24:47;85.72;;;40.17;;
46084;SDS011;31823;47.032;8.310;2023-03-05T01:27:12;82.40;;;39.75;;
46084;SDS011;31823;47.032;8.310;2023-03-05T01:29:38;80.68;;;38.15;;
46084;SDS011;31823;47.032;8.310;2023-03-05T01:32:03;88.43;;;40.10;;
46084;SDS011;31823;47.032;8.310;2023-03-05T01:34:29;86.13;;;40.47;;
46084;SDS011;31823;47.032;8.310;2023-03-05T01:36:55;78.55;;;39.03;;
46084;SDS011;31823;47.032;8.310;2023-03-05T01:39:20;86.68;;;40.97;;
46084;SDS011;31823;47.032;8.310;2023-03-05T01:41:46;82.43;;;39.75;;
46084;SDS011;31823;47.032;8.310;2023-03-05T01:44:24;84.65;;;39.53;;
46084;SDS011;31823;47.032;8.310;2023-03-05T01:46:52;75.43;;;39.22;;
46084;SDS011;31823;47.032;8.310;2023-03-05T01:54:31;90.07;;;41.03;;
46084;SDS011;31823;47.032;8.310;2023-03-05T01:57:08;81.18;;;39.30;;
46084;SDS011;31823;47.032;8.310;2023-03-05T01:59:38;89.05;;;41.15;;
46084;SDS011;31823;47.032;8.310;2023-03-05T02:02:06;86.25;;;42.17;;
46084;SDS011;31823;47.032;8.310;2023-03-05T02:04:48;81.63;;;39.47;;
46084;SDS011;31823;47.032;8.310;2023-03-05T02:07:16;80.45;;;39.05;;
46084;SDS011;31823;47.032;8.310;2023-03-05T02:09:42;86.88;;;40.70;;
46084;SDS011;31823;47.032;8.310;2023-03-05T02:12:09;86.82;;;40.15;;
46084;SDS011;31823;47.032;8.310;2023-03-05T02:14:37;84.15;;;40.03;;
46084;SDS011;31823;47.032;8.310;2023-03-05T02:17:04;88.75;;;40.95;;
46084;SDS011;31823;47.032;8.310;2023-03-05T02:19:44;90.20;;;41.42;;
46084;SDS011;31823;47.032;8.310;2023-03-05T02:22:20;88.05;;;40.95;;
46084;SDS011;31823;47.032;8.310;2023-03-05T02:24:47;96.78;;;41.45;;
46084;SDS011;31823;47.032;8.310;2023-03-05T02:27:13;94.30;;;42.05;;
46084;SDS011;31823;47.032;8.310;2023-03-05T02:29:41;99.38;;;43.92;;
46084;SDS011;31823;47.032;8.310;2023-03-05T02:32:08;91.25;;;41.40;;
46084;SDS011;31823;47.032;8.310;2023-03-05T02:34:34;88.95;;;39.83;;
46084;SDS011;31823;47.032;8.310;2023-03-05T02:37:01;94.18;;;42.55;;
46084;SDS011;31823;47.032;8.310;2023-03-05T02:39:28;93.55;;;41.30;;
46084;SDS011;31823;47.032;8.310;2023-03-05T02:41:57;88.60;;;40.40;;
46084;SDS011;31823;47.032;8.310;2023-03-05T02:44:22;92.03;;;40.70;;
46084;SDS011;31823;47.032;8.310;2023-03-05T02:46:48;90.40;;;39.45;;
46084;SDS011;31823;47.032;8.310;2023-03-05T02:49:14;94.45;;;41.75;;
46084;SDS011;31823;47.032;8.310;2023-03-05T02:51:40;101.35;;;42.70;;
46084;SDS011;31823;47.032;8.310;2023-03-05T02:54:05;93.90;;;39.75;;
46084;SDS011;31823;47.032;8.310;2023-03-05T02:56:31;95.22;;;41.67;;
46084;SDS011;31823;47.032;8.310;2023-03-05T02:58:57;94.93;;;42.40;;
46084;SDS011;31823;47.032;8.310;2023-03-05T03:01:22;91.05;;;41.70;;
46084;SDS011;31823;47.032;8.310;2023-03-05T03:03:48;87.10;;;38.88;;
46084;SDS011;31823;47.032;8.310;2023-03-05T03:06:13;91.95;;;41.58;;
46084;SDS011;31823;47.032;8.310;2023-03-05T03:08:39;87.97;;;40.78;;
46084;SDS011;31823;47.032;8.310;2023-03-05T03:11:08;82.00;;;40.47;;
46084;SDS011;31823;47.032;8.310;2023-03-05T03:13:36;87.30;;;41.08;;
46084;SDS011;31823;47.032;8.310;2023-03-05T03:16:09;93.93;;;41.40;;
46084;SDS011;31823;47.032;8.310;2023-03-05T03:18:37;92.55;;;40.20;;
46084;SDS011;31823;47.032;8.310;2023-03-05T03:21:02;95.70;;;42.05;;
46084;SDS011;31823;47.032;8.310;2023-03-05T03:23:28;93.95;;;41.55;;
46084;SDS011;31823;47.032;8.310;2023-03-05T03:25:54;94.00;;;42.40;;
46084;SDS011;31823;47.032;8.310;2023-03-05T03:28:19;94.65;;;40.35;;
46084;SDS011;31823;47.032;8.310;2023-03-05T03:30:45;89.50;;;41.33;;
46084;SDS011;31823;47.032;8.310;2023-03-05T03:33:11;94.32;;;43.45;;
46084;SDS011;31823;47.032;8.310;2023-03-05T03:35:36;85.15;;;40.10;;
46084;SDS011;31823;47.032;8.310;2023-03-05T03:38:02;96.75;;;42.50;;
46084;SDS011;31823;47.032;8.310;2023-03-05T03:40:28;95.15;;;41.80;;
46084;SDS011;31823;47.032;8.310;2023-03-05T03:42:54;87.72;;;39.67;;
46084;SDS011;31823;47.032;8.310;2023-03-05T03:45:20;93.93;;;40.22;;
46084;SDS011;31823;47.032;8.310;2023-03-05T03:47:49;93.40;;;42.33;;
46084;SDS011;31823;47.032;8.310;2023-03-05T03:50:15;89.55;;;41.40;;
46084;SDS011;31823;47.032;8.310;2023-03-05T03:52:42;91.20;;;41.88;;
46084;SDS011;31823;47.032;8.310;2023-03-05T03:55:07;94.45;;;42.80;;
46084;SDS011;31823;47.032;8.310;2023-03-05T03:57:35;97.78;;;41.58;;
46084;SDS011;31823;47.032;8.310;2023-03-05T04:00:19;84.33;;;40.70;;
46084;SDS011;31823;47.032;8.310;2023-03-05T04:02:45;98.43;;;42.42;;
46084;SDS011;31823;47.032;8.310;2023-03-05T04:05:10;87.80;;;39.78;;
46084;SDS011;31823;47.032;8.310;2023-03-05T04:07:36;93.78;;;41.65;;
46084;SDS011;31823;47.032;8.310;2023-03-05T04:10:02;90.57;;;41.70;;
46084;SDS011;31823;47.032;8.310;2023-03-05T04:12:28;87.22;;;41.47;;
46084;SDS011;31823;47.032;8.310;2023-03-05T04:14:53;89.78;;;39.90;;
46084;SDS011;31823;47.032;8.310;2023-03-05T04:17:19;85.55;;;41.22;;
46084;SDS011;31823;47.032;8.310;2023-03-05T04:19:44;93.63;;;41.85;;
46084;SDS011;31823;47.032;8.310;2023-03-05T04:22:10;84.90;;;39.90;;
46084;SDS011;31823;47.032;8.310;2023-03-05T04:24:37;97.13;;;41.72;;
46084;SDS011;31823;47.032;8.310;2023-03-05T04:27:03;91.95;;;40.10;;
46084;SDS011;31823;47.032;8.310;2023-03-05T04:29:29;89.07;;;41.60;;
46084;SDS011;31823;47.032;8.310;2023-03-05T04:31:55;94.13;;;42.15;;
46084;SDS011;31823;47.032;8.310;2023-03-05T04:34:20;92.15;;;41.00;;
46084;SDS011;31823;47.032;8.310;2023-03-05T04:36:46;90.43;;;40.20;;
46084;SDS011;31823;47.032;8.310;2023-03-05T04:39:11;90.65;;;41.65;;
46084;SDS011;31823;47.032;8.310;2023-03-05T04:41:37;85.68;;;39.10;;
46084;SDS011;31823;47.032;8.310;2023-03-05T04:44:02;84.55;;;39.70;;
46084;SDS011;31823;47.032;8.310;2023-03-05T04:46:28;92.40;;;40.17;;
46084;SDS011;31823;47.032;8.310;2023-03-05T04:48:54;92.35;;;41.20;;
46084;SDS011;31823;47.032;8.310;2023-03-05T04:51:20;85.28;;;40.38;;
46084;SDS011;31823;47.032;8.310;2023-03-05T04:53:46;92.85;;;42.03;;
46084;SDS011;31823;47.032;8.310;2023-03-05T04:56:11;83.65;;;40.50;;
46084;SDS011;31823;47.032;8.310;2023-03-05T04:58:37;95.60;;;43.03;;
46084;SDS011;31823;47.032;8.310;2023-03-05T05:01:04;92.57;;;41.55;;
46084;SDS011;31823;47.032;8.310;2023-03-05T05:03:30;88.28;;;40.15;;
46084;SDS011;31823;47.032;8.310;2023-03-05T05:05:56;97.75;;;43.25;;
46084;SDS011;31823;47.032;8.310;2023-03-05T05:08:23;86.05;;;39.60;;
46084;SDS011;31823;47.032;8.310;2023-03-05T05:13:21;93.20;;;41.05;;
46084;SDS011;31823;47.032;8.310;2023-03-05T05:15:46;90.93;;;40.78;;
46084;SDS011;31823;47.032;8.310;2023-03-05T05:18:12;91.93;;;41.72;;
46084;SDS011;31823;47.032;8.310;2023-03-05T05:20:37;94.43;;;43.05;;
46084;SDS011;31823;47.032;8.310;2023-03-05T05:23:03;92.72;;;42.47;;
46084;SDS011;31823;47.032;8.310;2023-03-05T05:25:28;89.35;;;41.25;;
46084;SDS011;31823;47.032;8.310;2023-03-05T05:27:54;95.07;;;40.70;;
46084;SDS011;31823;47.032;8.310;2023-03-05T05:30:19;95.65;;;42.83;;
46084;SDS011;31823;47.032;8.310;2023-03-05T05:32:45;100.20;;;43.20;;
46084;SDS011;31823;47.032;8.310;2023-03-05T05:35:10;92.38;;;43.22;;
46084;SDS011;31823;47.032;8.310;2023-03-05T05:37:36;91.85;;;42.47;;
46084;SDS011;31823;47.032;8.310;2023-03-05T05:40:02;97.68;;;44.33;;
46084;SDS011;31823;47.032;8.310;2023-03-05T05:42:29;93.20;;;41.35;;
46084;SDS011;31823;47.032;8.310;2023-03-05T05:44:55;89.45;;;41.65;;
46084;SDS011;31823;47.032;8.310;2023-03-05T05:47:20;98.75;;;42.65;;
46084;SDS011;31823;47.032;8.310;2023-03-05T05:49:46;87.07;;;40.90;;
46084;SDS011;31823;47.032;8.310;2023-03-05T05:52:12;91.63;;;42.35;;
46084;SDS011;31823;47.032;8.310;2023-03-05T05:54:38;96.82;;;42.65;;
46084;SDS011;31823;47.032;8.310;2023-03-05T05:57:03;94.80;;;43.08;;
46084;SDS011;31823;47.032;8.310;2023-03-05T05:59:29;94.32;;;42.92;;
46084;SDS011;31823;47.032;8.310;2023-03-05T06:01:54;87.53;;;41.28;;
46084;SDS011;31823;47.032;8.310;2023-03-05T06:04:20;98.47;;;42.78;;
46084;SDS011;31823;47.032;8.310;2023-03-05T06:06:46;90.72;;;41.55;;
46084;SDS011;31823;47.032;8.310;2023-03-05T06:09:11;102.97;;;44.97;;
46084;SDS011;31823;47.032;8.310;2023-03-05T06:11:37;96.22;;;43.67;;
46084;SDS011;31823;47.032;8.310;2023-03-05T06:14:03;92.82;;;41.75;;
46084;SDS011;31823;47.032;8.310;2023-03-05T06:16:29;93.35;;;42.55;;
46084;SDS011;31823;47.032;8.310;2023-03-05T06:18:54;90.47;;;40.92;;
46084;SDS011;31823;47.032;8.310;2023-03-05T06:21:21;96.28;;;42.03;;
46084;SDS011;31823;47.032;8.310;2023-03-05T06:23:47;101.63;;;43.58;;
46084;SDS011;31823;47.032;8.310;2023-03-05T06:26:14;93.18;;;43.55;;
46084;SDS011;31823;47.032;8.310;2023-03-05T06:28:42;96.78;;;42.28;;
46084;SDS011;31823;47.032;8.310;2023-03-05T06:31:08;94.10;;;43.75;;
46084;SDS011;31823;47.032;8.310;2023-03-05T06:33:36;92.38;;;42.00;;
46084;SDS011;31823;47.032;8.310;2023-03-05T06:36:03;89.57;;;41.83;;
46084;SDS011;31823;47.032;8.310;2023-03-05T06:38:31;95.22;;;43.85;;
46084;SDS011;31823;47.032;8.310;2023-03-05T06:41:03;93.68;;;42.90;;
46084;SDS011;31823;47.032;8.310;2023-03-05T06:43:33;100.43;;;43.70;;
46084;SDS011;31823;47.032;8.310;2023-03-05T06:46:04;96.32;;;42.20;;
46084;SDS011;31823;47.032;8.310;2023-03-05T06:48:33;96.03;;;44.63;;
46084;SDS011;31823;47.032;8.310;2023-03-05T06:50:59;93.65;;;43.60;;
46084;SDS011;31823;47.032;8.310;2023-03-05T06:53:24;95.45;;;41.00;;
46084;SDS011;31823;47.032;8.310;2023-03-05T06:55:51;95.07;;;43.20;;
46084;SDS011;31823;47.032;8.310;2023-03-05T06:58:17;101.18;;;45.47;;
46084;SDS011;31823;47.032;8.310;2023-03-05T07:00:43;95.25;;;44.05;;
46084;SDS011;31823;47.032;8.310;2023-03-05T07:03:09;98.95;;;45.10;;
46084;SDS011;31823;47.032;8.310;2023-03-05T07:05:38;96.75;;;43.47;;
46084;SDS011;31823;47.032;8.310;2023-03-05T07:08:04;98.32;;;43.55;;
46084;SDS011;31823;47.032;8.310;2023-03-05T07:10:30;94.60;;;42.90;;
46084;SDS011;31823;47.032;8.310;2023-03-05T07:12:55;98.63;;;42.97;;
46084;SDS011;31823;47.032;8.310;2023-03-05T07:15:21;105.15;;;46.28;;
46084;SDS011;31823;47.032;8.310;2023-03-05T07:17:47;101.07;;;43.63;;
46084;SDS011;31823;47.032;8.310;2023-03-05T07:20:12;100.68;;;44.90;;
46084;SDS011;31823;47.032;8.310;2023-03-05T07:22:38;96.82;;;44.42;;
46084;SDS011;31823;47.032;8.310;2023-03-05T07:25:04;95.05;;;44.00;;
46084;SDS011;31823;47.032;8.310;2023-03-05T07:27:33;104.78;;;44.28;;
46084;SDS011;31823;47.032;8.310;2023-03-05T07:29:59;100.80;;;44.60;;
46084;SDS011;31823;47.032;8.310;2023-03-05T07:32:25;98.03;;;43.55;;
46084;SDS011;31823;47.032;8.310;2023-03-05T07:34:50;102.43;;;44.58;;
46084;SDS011;31823;47.032;8.310;2023-03-05T07:37:16;93.65;;;43.33;;
46084;SDS011;31823;47.032;8.310;2023-03-05T07:39:41;107.07;;;46.00;;
46084;SDS011;31823;47.032;8.310;2023-03-05T07:42:07;93.30;;;44.50;;
46084;SDS011;31823;47.032;8.310;2023-03-05T07:44:32;93.85;;;44.50;;
46084;SDS011;31823;47.032;8.310;2023-03-05T07:46:58;92.18;;;44.80;;
46084;SDS011;31823;47.032;8.310;2023-03-05T07:49:23;89.40;;;42.17;;
46084;SDS011;31823;47.032;8.310;2023-03-05T07:51:49;94.82;;;43.75;;
46084;SDS011;31823;47.032;8.310;2023-03-05T07:54:15;94.60;;;45.70;;
46084;SDS011;31823;47.032;8.310;2023-03-05T07:56:40;92.55;;;44.35;;
46084;SDS011;31823;47.032;8.310;2023-03-05T07:59:07;90.00;;;42.85;;
46084;SDS011;31823;47.032;8.310;2023-03-05T08:01:34;103.13;;;46.00;;
46084;SDS011;31823;47.032;8.310;2023-03-05T08:04:01;93.35;;;42.90;;
46084;SDS011;31823;47.032;8.310;2023-03-05T08:06:26;88.47;;;43.45;;
46084;SDS011;31823;47.032;8.310;2023-03-05T08:08:52;88.60;;;44.17;;
46084;SDS011;31823;47.032;8.310;2023-03-05T08:11:18;90.53;;;41.75;;
46084;SDS011;31823;47.032;8.310;2023-03-05T08:13:43;92.78;;;43.50;;
46084;SDS011;31823;47.032;8.310;2023-03-05T08:16:19;94.47;;;45.10;;
46084;SDS011;31823;47.032;8.310;2023-03-05T08:18:45;102.13;;;45.35;;
46084;SDS011;31823;47.032;8.310;2023-03-05T08:21:25;97.32;;;44.08;;
46084;SDS011;31823;47.032;8.310;2023-03-05T08:26:25;91.40;;;43.78;;
46084;SDS011;31823;47.032;8.310;2023-03-05T08:28:53;96.03;;;43.13;;
46084;SDS011;31823;47.032;8.310;2023-03-05T08:31:20;91.43;;;42.72;;
46084;SDS011;31823;47.032;8.310;2023-03-05T08:33:47;96.40;;;43.88;;
46084;SDS011;31823;47.032;8.310;2023-03-05T08:36:14;91.03;;;42.60;;
46084;SDS011;31823;47.032;8.310;2023-03-05T08:38:40;103.00;;;44.38;;
46084;SDS011;31823;47.032;8.310;2023-03-05T08:41:06;94.68;;;44.85;;
46084;SDS011;31823;47.032;8.310;2023-03-05T08:43:32;92.03;;;44.92;;
46084;SDS011;31823;47.032;8.310;2023-03-05T08:45:59;97.22;;;44.70;;
46084;SDS011;31823;47.032;8.310;2023-03-05T08:48:24;97.97;;;45.00;;
46084;SDS011;31823;47.032;8.310;2023-03-05T08:50:50;99.88;;;46.03;;
46084;SDS011;31823;47.032;8.310;2023-03-05T08:53:17;102.20;;;42.92;;
46084;SDS011;31823;47.032;8.310;2023-03-05T08:55:42;90.30;;;42.60;;
46084;SDS011;31823;47.032;8.310;2023-03-05T08:58:08;93.32;;;44.65;;
46084;SDS011;31823;47.032;8.310;2023-03-05T09:00:33;93.90;;;44.13;;
46084;SDS011;31823;47.032;8.310;2023-03-05T09:02:59;91.15;;;43.10;;
46084;SDS011;31823;47.032;8.310;2023-03-05T09:05:24;96.25;;;44.35;;
46084;SDS011;31823;47.032;8.310;2023-03-05T09:07:50;98.53;;;45.13;;
46084;SDS011;31823;47.032;8.310;2023-03-05T09:10:16;97.68;;;44.75;;
46084;SDS011;31823;47.032;8.310;2023-03-05T09:12:42;97.97;;;43.88;;
46084;SDS011;31823;47.032;8.310;2023-03-05T09:15:09;95.40;;;44.67;;
46084;SDS011;31823;47.032;8.310;2023-03-05T09:17:36;95.03;;;43.88;;
46084;SDS011;31823;47.032;8.310;2023-03-05T09:20:02;94.60;;;43.40;;
46084;SDS011;31823;47.032;8.310;2023-03-05T09:22:29;93.43;;;41.53;;
46084;SDS011;31823;47.032;8.310;2023-03-05T09:24:55;90.05;;;42.70;;
46084;SDS011;31823;47.032;8.310;2023-03-05T09:27:21;86.93;;;41.00;;
46084;SDS011;31823;47.032;8.310;2023-03-05T09:29:46;89.50;;;42.33;;
46084;SDS011;31823;47.032;8.310;2023-03-05T09:32:12;94.45;;;42.92;;
46084;SDS011;31823;47.032;8.310;2023-03-05T09:34:37;88.03;;;40.33;;
46084;SDS011;31823;47.032;8.310;2023-03-05T09:37:03;90.53;;;41.80;;
46084;SDS011;31823;47.032;8.310;2023-03-05T09:39:29;89.63;;;41.03;;
46084;SDS011;31823;47.032;8.310;2023-03-05T09:42:08;86.85;;;42.38;;
46084;SDS011;31823;47.032;8.310;2023-03-05T09:50:04;82.75;;;41.53;;
46084;SDS011;31823;47.032;8.310;2023-03-05T09:52:41;87.38;;;41.65;;
46084;SDS011;31823;47.032;8.310;2023-03-05T09:55:18;87.32;;;41.97;;
46084;SDS011;31823;47.032;8.310;2023-03-05T09:57:51;92.13;;;41.60;;
46084;SDS011;31823;47.032;8.310;2023-03-05T10:00:27;88.65;;;43.47;;
46084;SDS011;31823;47.032;8.310;2023-03-05T10:02:59;92.07;;;44.90;;
46084;SDS011;31823;47.032;8.310;2023-03-05T10:08:07;86.28;;;41.67;;
46084;SDS011;31823;47.032;8.310;2023-03-05T10:10:39;95.70;;;43.60;;
46084;SDS011;31823;47.032;8.310;2023-03-05T10:13:13;97.80;;;45.38;;
46084;SDS011;31823;47.032;8.310;2023-03-05T10:23:51;88.00;;;41.65;;
46084;SDS011;31823;47.032;8.310;2023-03-05T10:26:44;84.50;;;42.28;;
46084;SDS011;31823;47.032;8.310;2023-03-05T10:29:35;86.38;;;42.00;;
46084;SDS011;31823;47.032;8.310;2023-03-05T10:35:12;89.63;;;41.92;;
46084;SDS011;31823;47.032;8.310;2023-03-05T10:40:27;79.80;;;41.50;;
46084;SDS011;31823;47.032;8.310;2023-03-05T10:45:58;83.22;;;42.22;;
46084;SDS011;31823;47.032;8.310;2023-03-05T10:49:00;85.75;;;40.80;;
46084;SDS011;31823;47.032;8.310;2023-03-05T10:56:42;88.80;;;42.22;;
46084;SDS011;31823;47.032;8.310;2023-03-05T10:59:07;89.18;;;42.70;;
46084;SDS011;31823;47.032;8.310;2023-03-05T11:01:33;86.18;;;42.85;;
46084;SDS011;31823;47.032;8.310;2023-03-05T11:04:02;85.80;;;43.55;;
46084;SDS011;31823;47.032;8.310;2023-03-05T11:14:28;80.93;;;42.65;;
46084;SDS011;31823;47.032;8.310;2023-03-05T11:16:57;88.45;;;42.50;;
46084;SDS011;31823;47.032;8.310;2023-03-05T11:19:31;85.95;;;42.67;;
46084;SDS011;31823;47.032;8.310;2023-03-05T11:22:18;78.03;;;40.80;;
46084;SDS011;31823;47.032;8.310;2023-03-05T11:27:37;84.15;;;41.70;;
46084;SDS011;31823;47.032;8.310;2023-03-05T11:30:18;82.93;;;41.92;;
46084;SDS011;31823;47.032;8.310;2023-03-05T11:32:48;81.50;;;39.85;;
46084;SDS011;31823;47.032;8.310;2023-03-05T11:35:33;79.70;;;41.42;;
46084;SDS011;31823;47.032;8.310;2023-03-05T11:38:01;81.50;;;41.45;;
46084;SDS011;31823;47.032;8.310;2023-03-05T11:40:31;87.43;;;41.88;;
46084;SDS011;31823;47.032;8.310;2023-03-05T11:43:02;84.88;;;42.58;;
46084;SDS011;31823;47.032;8.310;2023-03-05T11:45:29;79.50;;;41.20;;
46084;SDS011;31823;47.032;8.310;2023-03-05T11:50:53;81.95;;;41.22;;
46084;SDS011;31823;47.032;8.310;2023-03-05T11:53:26;81.32;;;40.78;;
46084;SDS011;31823;47.032;8.310;2023-03-05T11:56:03;83.35;;;41.38;;
46084;SDS011;31823;47.032;8.310;2023-03-05T11:58:41;82.63;;;39.92;;
46084;SDS011;31823;47.032;8.310;2023-03-05T12:01:13;84.78;;;40.95;;
46084;SDS011;31823;47.032;8.310;2023-03-05T12:03:44;75.65;;;41.25;;
46084;SDS011;31823;47.032;8.310;2023-03-05T12:08:45;81.75;;;40.20;;
46084;SDS011;31823;47.032;8.310;2023-03-05T12:11:16;81.30;;;38.90;;
46084;SDS011;31823;47.032;8.310;2023-03-05T12:13:47;77.28;;;39.63;;
46084;SDS011;31823;47.032;8.310;2023-03-05T12:21:38;60.70;;;29.57;;
46084;SDS011;31823;47.032;8.310;2023-03-05T12:43:04;83.90;;;43.67;;
46084;SDS011;31823;47.032;8.310;2023-03-05T12:45:50;87.75;;;43.35;;
46084;SDS011;31823;47.032;8.310;2023-03-05T12:53:09;90.80;;;41.47;;
46084;SDS011;31823;47.032;8.310;2023-03-05T13:01:04;81.00;;;42.00;;
46084;SDS011;31823;47.032;8.310;2023-03-05T13:03:53;82.40;;;42.60;;
46084;SDS011;31823;47.032;8.310;2023-03-05T13:06:26;87.25;;;43.78;;
46084;SDS011;31823;47.032;8.310;2023-03-05T13:08:59;85.07;;;41.70;;
46084;SDS011;31823;47.032;8.310;2023-03-05T13:11:25;95.57;;;47.28;;
46084;SDS011;31823;47.032;8.310;2023-03-05T13:13:53;91.88;;;47.97;;
46084;SDS011;31823;47.032;8.310;2023-03-05T13:16:24;89.68;;;45.67;;
46084;SDS011;31823;47.032;8.310;2023-03-05T13:18:53;91.80;;;44.47;;
46084;SDS011;31823;47.032;8.310;2023-03-05T13:21:25;91.75;;;45.65;;
46084;SDS011;31823;47.032;8.310;2023-03-05T13:23:56;90.05;;;43.05;;
46084;SDS011;31823;47.032;8.310;2023-03-05T13:26:28;93.63;;;45.67;;
46084;SDS011;31823;47.032;8.310;2023-03-05T13:31:40;94.80;;;46.42;;
46084;SDS011;31823;47.032;8.310;2023-03-05T13:36:47;91.15;;;48.38;;
46084;SDS011;31823;47.032;8.310;2023-03-05T13:39:42;91.95;;;47.53;;
46084;SDS011;31823;47.032;8.310;2023-03-05T13:44:52;92.68;;;49.00;;
46084;SDS011;31823;47.032;8.310;2023-03-05T13:47:23;89.05;;;45.15;;
46084;SDS011;31823;47.032;8.310;2023-03-05T13:50:05;96.00;;;46.05;;
46084;SDS011;31823;47.032;8.310;2023-03-05T13:52:33;92.47;;;45.97;;
46084;SDS011;31823;47.032;8.310;2023-03-05T13:55:01;92.40;;;45.70;;
46084;SDS011;31823;47.032;8.310;2023-03-05T14:00:01;85.40;;;44.38;;
46084;SDS011;31823;47.032;8.310;2023-03-05T14:02:27;89.28;;;43.33;;
46084;SDS011;31823;47.032;8.310;2023-03-05T14:04:54;88.03;;;46.53;;
46084;SDS011;31823;47.032;8.310;2023-03-05T14:09:54;93.60;;;44.87;;
46084;SDS011;31823;47.032;8.310;2023-03-05T14:15:03;97.57;;;46.67;;
46084;SDS011;31823;47.032;8.310;2023-03-05T14:17:44;92.72;;;45.83;;
46084;SDS011;31823;47.032;8.310;2023-03-05T14:20:27;94.40;;;45.67;;
46084;SDS011;31823;47.032;8.310;2023-03-05T14:22:55;97.38;;;46.60;;
46084;SDS011;31823;47.032;8.310;2023-03-05T14:28:48;90.65;;;46.03;;
46084;SDS011;31823;47.032;8.310;2023-03-05T14:30:51;90.35;;;47.25;;
46084;SDS011;31823;47.032;8.310;2023-03-05T14:35:52;96.13;;;45.63;;
46084;SDS011;31823;47.032;8.310;2023-03-05T14:38:21;89.65;;;46.78;;
46084;SDS011;31823;47.032;8.310;2023-03-05T14:40:52;95.88;;;45.70;;
46084;SDS011;31823;47.032;8.310;2023-03-05T14:43:18;100.93;;;49.65;;
46084;SDS011;31823;47.032;8.310;2023-03-05T14:45:44;96.50;;;48.58;;
46084;SDS011;31823;47.032;8.310;2023-03-05T14:48:11;89.43;;;47.42;;
46084;SDS011;31823;47.032;8.310;2023-03-05T14:50:43;100.82;;;48.58;;
46084;SDS011;31823;47.032;8.310;2023-03-05T14:53:17;99.13;;;48.97;;
46084;SDS011;31823;47.032;8.310;2023-03-05T14:55:50;96.35;;;48.15;;
46084;SDS011;31823;47.032;8.310;2023-03-05T14:58:21;102.47;;;48.95;;
46084;SDS011;31823;47.032;8.310;2023-03-05T15:00:49;98.65;;;48.50;;
46084;SDS011;31823;47.032;8.310;2023-03-05T15:03:17;89.80;;;45.78;;
46084;SDS011;31823;47.032;8.310;2023-03-05T15:05:44;105.28;;;48.45;;
46084;SDS011;31823;47.032;8.310;2023-03-05T15:08:19;97.20;;;49.83;;
46084;SDS011;31823;47.032;8.310;2023-03-05T15:10:47;98.65;;;47.78;;
46084;SDS011;31823;47.032;8.310;2023-03-05T15:13:14;91.95;;;46.55;;
46084;SDS011;31823;47.032;8.310;2023-03-05T15:15:41;91.15;;;45.53;;
46084;SDS011;31823;47.032;8.310;2023-03-05T15:18:14;91.35;;;47.30;;
46084;SDS011;31823;47.032;8.310;2023-03-05T15:20:41;96.80;;;46.15;;
46084;SDS011;31823;47.032;8.310;2023-03-05T15:23:07;96.07;;;46.42;;
46084;SDS011;31823;47.032;8.310;2023-03-05T15:25:33;91.07;;;47.03;;
46084;SDS011;31823;47.032;8.310;2023-03-05T15:27:59;97.13;;;48.05;;
46084;SDS011;31823;47.032;8.310;2023-03-05T15:30:26;91.30;;;47.53;;
46084;SDS011;31823;47.032;8.310;2023-03-05T15:32:54;91.57;;;47.63;;
46084;SDS011;31823;47.032;8.310;2023-03-05T15:35:21;97.38;;;49.53;;
46084;SDS011;31823;47.032;8.310;2023-03-05T15:37:47;94.25;;;49.92;;
46084;SDS011;31823;47.032;8.310;2023-03-05T15:40:13;91.93;;;47.33;;
46084;SDS011;31823;47.032;8.310;2023-03-05T15:42:38;95.93;;;48.50;;
46084;SDS011;31823;47.032;8.310;2023-03-05T15:45:05;96.03;;;45.53;;
46084;SDS011;31823;47.032;8.310;2023-03-05T15:47:31;85.88;;;45.45;;
46084;SDS011;31823;47.032;8.310;2023-03-05T15:49:56;98.28;;;47.50;;
46084;SDS011;31823;47.032;8.310;2023-03-05T15:52:22;88.35;;;45.28;;
46084;SDS011;31823;47.032;8.310;2023-03-05T15:54:47;89.30;;;45.22;;
46084;SDS011;31823;47.032;8.310;2023-03-05T15:57:13;89.78;;;46.88;;
46084;SDS011;31823;47.032;8.310;2023-03-05T15:59:39;97.65;;;48.75;;
46084;SDS011;31823;47.032;8.310;2023-03-05T16:02:05;94.85;;;47.65;;
46084;SDS011;31823;47.032;8.310;2023-03-05T16:04:31;108.10;;;49.67;;
46084;SDS011;31823;47.032;8.310;2023-03-05T16:06:57;94.72;;;48.35;;
46084;SDS011;31823;47.032;8.310;2023-03-05T16:09:25;94.53;;;48.00;;
46084;SDS011;31823;47.032;8.310;2023-03-05T16:11:53;93.97;;;47.95;;
46084;SDS011;31823;47.032;8.310;2023-03-05T16:14:22;86.97;;;46.08;;
46084;SDS011;31823;47.032;8.310;2023-03-05T16:16:50;98.32;;;48.83;;
46084;SDS011;31823;47.032;8.310;2023-03-05T16:19:17;101.25;;;49.25;;
46084;SDS011;31823;47.032;8.310;2023-03-05T16:21:44;87.90;;;45.88;;